Time;durP1;ratioP1;P1;durP2;ratioP2;P2;SDS_P1;SDS_P2;PMS_P1;PMS_P2;Temp;Humidity;BMP_temperature;BMP_pressure;BME280_temperature;BME280_humidity;BME280_pressure;Samples;Min_cycle;Max_cycle;Signal;HPM_P1;HPM_P2
2022/11/29 00:01:15;;;;;;;6.80;3.93;;;8.50;99.90;;;8.75;nan;100399.47;4988677;28;20639;-64
2022/11/29 00:03:42;;;;;;;8.40;4.50;;;8.40;99.90;;;8.78;nan;100391.44;4992012;28;21179;-64
2022/11/29 00:06:23;;;;;;;7.30;4.63;;;8.50;99.90;;;8.73;nan;100394.34;4962062;28;20639;-65
2022/11/29 00:08:50;;;;;;;6.50;4.13;;;8.50;99.90;;;8.81;nan;100397.28;4990700;28;20671;-64
2022/11/29 00:14:08;;;;;;;6.30;4.30;;;8.50;99.90;;;8.81;nan;100397.28;4972792;28;20620;-64
2022/11/29 00:16:35;;;;;;;8.40;5.00;;;8.50;99.90;;;8.87;nan;100402.06;4989624;28;20638;-65
2022/11/29 00:19:02;;;;;;;5.80;4.47;;;8.50;99.90;;;8.85;nan;100396.13;4990937;28;20665;-66
2022/11/29 00:21:29;;;;;;;6.90;4.50;;;8.50;99.90;;;8.93;nan;100393.81;4976863;28;21262;-66
2022/11/29 00:23:56;;;;;;;9.27;4.77;;;8.60;99.90;;;8.96;nan;100395.38;5004122;28;20649;-66
2022/11/29 00:26:24;;;;;;;7.23;4.77;;;8.60;99.90;;;8.98;nan;100396.13;4993913;28;20741;-66
2022/11/29 00:28:51;;;;;;;6.67;4.77;;;8.60;99.90;;;8.98;nan;100394.34;4991075;28;20677;-65
2022/11/29 00:31:29;;;;;;;6.60;5.00;;;8.60;99.90;;;8.87;nan;100391.66;4991399;28;20626;-64
2022/11/29 00:33:58;;;;;;;9.50;4.80;;;8.60;99.90;;;8.86;nan;100389.16;5001448;28;20641;-65
2022/11/29 00:36:25;;;;;;;5.90;4.87;;;8.60;99.90;;;8.90;nan;100394.03;4974412;28;20665;-64
2022/11/29 00:38:52;;;;;;;11.17;5.67;;;8.60;99.90;;;8.90;nan;100394.03;4971884;28;20717;-64
2022/11/29 00:41:19;;;;;;;8.83;5.17;;;8.60;99.90;;;8.93;nan;100396.44;4990307;28;20699;-67
2022/11/29 00:43:46;;;;;;;7.40;5.20;;;8.60;99.90;;;8.92;nan;100394.75;4991768;28;21212;-65
2022/11/29 00:46:13;;;;;;;7.13;5.30;;;8.60;99.90;;;8.91;nan;100394.88;4990879;28;20660;-67
2022/11/29 00:48:40;;;;;;;6.87;5.00;;;8.60;99.90;;;8.90;nan;100398.41;4973370;28;20674;-64
2022/11/29 00:51:08;;;;;;;13.40;5.67;;;8.60;99.90;;;8.94;nan;100403.31;4991277;28;20627;-64
2022/11/29 00:53:36;;;;;;;8.67;5.60;;;8.60;99.90;;;8.90;nan;100401.03;4981702;28;20638;-64
2022/11/29 00:56:04;;;;;;;7.57;5.67;;;8.60;99.90;;;8.92;nan;100393.94;4991136;28;20643;-66
2022/11/29 00:58:32;;;;;;;8.40;5.40;;;8.60;99.90;;;8.90;nan;100401.81;4989377;28;20701;-64
2022/11/29 01:00:58;;;;;;;8.73;5.80;;;8.60;99.90;;;8.95;nan;100398.91;4991386;28;20693;-64
2022/11/29 01:03:25;;;;;;;10.40;5.70;;;8.60;99.90;;;8.97;nan;100400.47;4991068;28;20642;-64
2022/11/29 01:06:06;;;;;;;9.17;6.30;;;8.60;99.90;;;8.98;nan;100404.75;4974662;28;20625;-65
2022/11/29 01:08:33;;;;;;;7.63;5.50;;;8.60;99.90;;;9.03;nan;100407.84;4990320;28;20670;-65
2022/11/29 01:11:12;;;;;;;13.73;5.50;;;8.70;99.90;;;9.05;nan;100408.59;4990087;28;20634;-65
2022/11/29 01:13:39;;;;;;;8.57;5.83;;;8.70;99.90;;;9.07;nan;100406.69;4987242;28;20626;-65
2022/11/29 01:16:07;;;;;;;9.70;6.03;;;8.70;99.90;;;9.07;nan;100408.50;4989477;28;20642;-68
2022/11/29 01:18:35;;;;;;;7.50;5.23;;;8.70;99.90;;;9.06;nan;100412.88;4990891;28;20669;-64
2022/11/29 01:21:08;;;;;;;9.50;5.50;;;8.70;99.90;;;9.09;nan;100417.84;4993723;28;20708;-66
2022/11/29 01:23:36;;;;;;;8.47;6.30;;;8.70;99.90;;;9.10;nan;100414.31;5002709;28;20694;-64
2022/11/29 01:26:13;;;;;;;9.10;5.67;;;8.70;99.90;;;9.13;nan;100418.47;5013671;28;20636;-65
2022/11/29 01:28:41;;;;;;;8.77;5.60;;;8.70;99.90;;;9.12;nan;100429.81;4995238;28;21045;-67
2022/11/29 01:31:16;;;;;;;9.77;6.30;;;8.70;99.90;;;9.10;nan;100418.69;4957694;28;21148;-64
2022/11/29 01:33:43;;;;;;;7.97;5.10;;;8.70;99.90;;;9.13;nan;100419.31;4964702;28;21213;-64
2022/11/29 01:36:13;;;;;;;9.70;6.00;;;8.70;99.90;;;9.13;nan;100423.69;4994900;28;21228;-64
2022/11/29 01:38:43;;;;;;;8.50;5.40;;;8.70;99.90;;;9.12;nan;100427.22;4992916;28;20728;-65
2022/11/29 01:41:18;;;;;;;9.37;5.83;;;8.80;99.90;;;9.14;nan;100422.72;4994086;28;21219;-64
2022/11/29 01:43:59;;;;;;;13.20;6.23;;;8.70;99.90;;;9.16;nan;100423.47;4992308;28;20645;-64
2022/11/29 01:46:30;;;;;;;9.20;5.40;;;8.80;99.90;;;9.14;nan;100423.56;4990725;28;20649;-64
2022/11/29 01:49:06;;;;;;;7.47;5.40;;;8.80;99.90;;;9.15;nan;100422.66;4992445;28;20682;-65
2022/11/29 01:51:36;;;;;;;9.00;5.57;;;8.80;99.90;;;9.19;nan;100426.69;4977024;28;20634;-65
2022/11/29 01:54:04;;;;;;;7.10;5.20;;;8.80;99.90;;;9.20;nan;100425.75;4972060;28;21087;-66
2022/11/29 01:56:33;;;;;;;8.97;6.00;;;8.80;99.90;;;9.16;nan;100428.66;4976474;28;20631;-65
2022/11/29 01:59:09;;;;;;;8.67;5.67;;;8.80;99.90;;;9.14;nan;100428.78;4989955;28;20670;-65
2022/11/29 02:01:36;;;;;;;10.27;5.30;;;8.80;99.90;;;9.16;nan;100423.47;4986695;28;21256;-64
2022/11/29 02:04:04;;;;;;;7.73;4.90;;;8.80;99.90;;;9.15;nan;100427.00;4992029;28;20635;-64
2022/11/29 02:06:33;;;;;;;4.43;4.03;;;8.80;99.90;;;9.17;nan;100431.19;4976253;28;20651;-67
2022/11/29 02:09:00;;;;;;;6.53;4.30;;;8.80;99.90;;;9.12;nan;100427.22;4974708;28;21055;-65
2022/11/29 02:11:45;;;;;;;7.83;5.10;;;8.80;99.90;;;9.07;nan;100429.31;4993971;28;20635;-64
2022/11/29 02:15:18;;;;;;;9.70;4.87;;;8.80;99.90;;;9.10;nan;100424.72;4990260;28;20639;-64
2022/11/29 02:21:07;;;;;;;11.00;7.43;;;8.80;99.90;;;9.02;nan;100426.19;4952466;29;20679;-64
2022/11/29 02:23:58;;;;;;;11.63;6.43;;;8.70;99.90;;;8.99;nan;100432.44;4943215;28;21017;-64
2022/11/29 02:26:40;;;;;;;13.27;7.13;;;8.70;99.90;;;8.90;nan;100425.25;4949230;28;20645;-64
2022/11/29 02:30:05;;;;;;;14.40;7.80;;;8.70;99.90;;;8.94;nan;100424.13;4953246;28;20676;-64
2022/11/29 02:33:08;;;;;;;17.47;9.13;;;8.60;99.90;;;8.95;nan;100425.78;4943875;29;20629;-64
2022/11/29 02:36:10;;;;;;;12.90;8.50;;;8.70;99.90;;;8.92;nan;100425.97;4916643;28;20662;-64
2022/11/29 02:39:18;;;;;;;11.37;7.13;;;8.60;99.90;;;8.89;nan;100431.41;4952133;29;20738;-64
2022/11/29 02:42:09;;;;;;;14.50;8.07;;;8.60;99.90;;;8.90;nan;100425.25;4960809;28;20635;-64
2022/11/29 02:45:40;;;;;;;11.33;6.17;;;8.60;99.90;;;8.90;nan;100430.44;4950381;28;20636;-64
2022/11/29 02:48:47;;;;;;;11.67;6.30;;;8.60;99.90;;;8.87;nan;100429.84;4918598;29;20646;-64
2022/11/29 02:52:02;;;;;;;15.73;8.27;;;8.60;99.90;;;8.94;nan;100434.53;4953541;28;20659;-64
2022/11/29 02:54:46;;;;;;;19.10;9.57;;;8.60;99.90;;;8.87;nan;100422.03;4951074;28;20636;-64
2022/11/29 02:57:42;;;;;;;10.10;7.10;;;8.60;99.90;;;8.85;nan;100429.09;4952757;29;20644;-64
2022/11/29 03:00:15;;;;;;;14.83;8.53;;;8.60;99.90;;;8.72;nan;100430.88;4937943;28;20668;-63
2022/11/29 03:02:50;;;;;;;16.77;8.80;;;8.50;99.90;;;8.56;nan;100429.28;4935197;29;20624;-63
2022/11/29 03:05:40;;;;;;;14.87;7.80;;;8.50;99.90;;;8.59;nan;100430.88;4953388;29;21213;-64
2022/11/29 03:08:45;;;;;;;16.80;8.90;;;8.40;99.90;;;8.53;nan;100436.47;4942941;28;21208;-63
2022/11/29 03:11:42;;;;;;;18.20;8.27;;;8.40;99.90;;;8.43;nan;100433.63;4934655;29;20718;-64
2022/11/29 03:14:13;;;;;;;14.30;7.80;;;8.30;99.90;;;8.55;nan;100445.84;4928391;29;20650;-63
2022/11/29 03:17:08;;;;;;;11.60;7.20;;;8.30;99.90;;;8.62;nan;100453.25;4952085;29;20996;-63
2022/11/29 03:20:27;;;;;;;16.23;9.43;;;8.30;99.90;;;8.37;nan;100449.66;4952860;28;21251;-64
2022/11/29 03:23:20;;;;;;;15.83;9.10;;;8.30;99.90;;;8.48;nan;100454.13;4961416;28;20651;-63
2022/11/29 03:26:02;;;;;;;17.13;10.00;;;8.30;99.90;;;8.57;nan;100456.13;4972104;28;20630;-64
2022/11/29 03:29:06;;;;;;;18.53;9.07;;;8.30;99.90;;;8.55;nan;100458.84;4952268;28;20683;-64
2022/11/29 03:32:13;;;;;;;15.43;9.27;;;8.30;99.90;;;8.43;nan;100451.84;4937744;28;21002;-63
2022/11/29 03:35:05;;;;;;;14.67;8.70;;;8.30;99.90;;;8.56;nan;100457.91;4937133;29;20651;-64
2022/11/29 03:38:20;;;;;;;13.83;8.23;;;8.30;99.90;;;8.50;nan;100455.72;4919810;29;20615;-64
2022/11/29 03:41:09;;;;;;;10.87;7.30;;;8.20;99.90;;;8.50;nan;100460.91;4953363;28;20631;-63
2022/11/29 03:43:50;;;;;;;14.90;8.57;;;8.20;99.90;;;8.57;nan;100462.19;4941419;29;20642;-64
2022/11/29 03:46:57;;;;;;;20.60;10.30;;;8.30;99.90;;;8.56;nan;100470.09;4933142;29;21004;-64
2022/11/29 03:49:41;;;;;;;21.37;11.67;;;8.30;99.90;;;8.59;nan;100465.50;4955405;28;20750;-64
2022/11/29 03:52:18;;;;;;;19.10;9.77;;;8.30;99.90;;;8.59;nan;100469.88;4950478;29;20998;-64
2022/11/29 03:55:20;;;;;;;15.67;7.90;;;8.30;99.90;;;8.54;nan;100467.56;4962598;28;20657;-64
2022/11/29 03:58:04;;;;;;;15.47;8.33;;;8.30;99.90;;;8.40;nan;100467.66;4952681;28;20675;-63
2022/11/29 04:00:47;;;;;;;14.07;8.10;;;8.20;99.90;;;8.27;nan;100463.34;4940932;29;20671;-63
2022/11/29 04:03:44;;;;;;;19.90;11.00;;;8.20;99.90;;;8.19;nan;100463.81;4953594;28;20643;-61
2022/11/29 04:06:38;;;;;;;15.10;9.00;;;8.10;99.90;;;8.33;nan;100462.94;4933830;29;20639;-63
2022/11/29 04:10:01;;;;;;;17.27;8.70;;;8.10;99.90;;;8.32;nan;100467.34;4935131;28;20679;-63
2022/11/29 04:12:43;;;;;;;16.20;9.63;;;8.10;99.90;;;8.24;nan;100468.72;4940220;28;20639;-64
2022/11/29 04:15:43;;;;;;;16.30;9.30;;;8.10;99.90;;;8.35;nan;100466.28;4949875;29;20706;-64
2022/11/29 04:18:41;;;;;;;14.60;8.60;;;8.10;99.90;;;8.29;nan;100467.50;4933660;29;20672;-63
2022/11/29 04:21:30;;;;;;;10.80;7.10;;;8.10;99.90;;;8.34;nan;100469.81;4952111;28;20642;-64
2022/11/29 04:24:24;;;;;;;14.83;8.50;;;8.10;99.90;;;8.30;nan;100471.78;4934841;29;20634;-64
2022/11/29 04:27:43;;;;;;;11.27;8.37;;;8.10;99.90;;;8.41;nan;100476.28;4952272;29;20639;-64
2022/11/29 04:30:16;;;;;;;14.50;8.70;;;8.10;99.90;;;8.30;nan;100476.16;4952261;28;20680;-63
2022/11/29 04:33:20;;;;;;;13.47;8.87;;;8.10;99.90;;;8.31;nan;100475.19;4960446;28;20719;-64
2022/11/29 04:36:36;;;;;;;15.90;7.70;;;8.10;99.90;;;8.29;nan;100475.31;4934833;29;20631;-65
2022/11/29 04:39:45;;;;;;;16.27;8.33;;;8.10;99.90;;;8.28;nan;100486.66;4951770;29;20661;-65
2022/11/29 04:43:01;;;;;;;12.07;7.70;;;8.10;99.90;;;8.21;nan;100490.53;4935851;29;20633;-64
2022/11/29 04:46:06;;;;;;;11.60;7.90;;;8.00;99.90;;;8.10;nan;100487.78;4951691;28;20647;-67
2022/11/29 04:49:42;;;;;;;15.87;8.73;;;8.00;99.90;;;8.28;nan;100491.84;4948634;28;20668;-65
2022/11/29 04:52:36;;;;;;;15.43;9.03;;;8.00;99.90;;;7.96;nan;100497.41;4948874;28;20656;-65
2022/11/29 04:55:43;;;;;;;12.67;7.77;;;7.90;99.90;;;8.18;nan;100493.31;4939952;29;20629;-64
2022/11/29 04:58:36;;;;;;;11.20;6.80;;;7.90;99.90;;;8.27;nan;100497.13;4954895;28;21271;-65
2022/11/29 05:01:57;;;;;;;14.57;8.00;;;7.90;99.90;;;8.38;nan;100498.13;4923226;29;20639;-64
2022/11/29 05:04:50;;;;;;;14.63;8.20;;;8.00;99.90;;;8.39;nan;100489.38;4962646;28;21007;-64
2022/11/29 05:07:32;;;;;;;9.50;7.30;;;8.10;99.90;;;8.36;nan;100497.38;4958288;28;20637;-64
2022/11/29 05:10:48;;;;;;;12.90;8.27;;;8.10;99.90;;;8.34;nan;100501.00;4954028;29;20678;-65
2022/11/29 05:13:30;;;;;;;13.37;7.40;;;8.10;99.90;;;8.40;nan;100496.25;4954247;29;20727;-64
2022/11/29 05:16:38;;;;;;;12.13;7.23;;;8.10;99.90;;;8.45;nan;100508.97;4938444;29;20628;-64
2022/11/29 05:19:49;;;;;;;10.30;7.10;;;8.10;99.90;;;8.45;nan;100511.56;4955067;29;21247;-64
2022/11/29 05:22:39;;;;;;;8.60;5.23;;;8.10;99.90;;;8.52;nan;100518.84;4923522;29;20629;-64
2022/11/29 05:26:05;;;;;;;10.60;6.03;;;8.20;99.90;;;8.49;nan;100521.66;4933664;29;21034;-65
2022/11/29 05:28:59;;;;;;;7.13;5.33;;;8.20;99.90;;;8.48;nan;100519.13;4938062;29;20748;-64
2022/11/29 05:31:59;;;;;;;8.37;6.03;;;8.20;99.90;;;8.48;nan;100519.97;4954459;29;21059;-64
2022/11/29 05:35:03;;;;;;;7.70;4.20;;;8.20;99.90;;;8.56;nan;100530.72;4938479;29;20647;-64
2022/11/29 05:37:42;;;;;;;8.20;5.77;;;8.20;99.90;;;8.52;nan;100531.00;4954414;29;20710;-65
2022/11/29 05:40:31;;;;;;;7.33;5.70;;;8.20;99.90;;;8.55;nan;100538.63;4937723;29;20639;-64
2022/11/29 05:43:34;;;;;;;7.63;5.20;;;8.20;99.90;;;8.59;nan;100537.47;4955232;29;20642;-65
2022/11/29 05:46:23;;;;;;;10.80;7.37;;;8.30;99.90;;;8.54;nan;100542.97;4954119;29;20619;-65
2022/11/29 05:49:36;;;;;;;9.87;7.50;;;8.30;99.90;;;8.59;nan;100538.31;4940175;28;20668;-64
2022/11/29 05:52:29;;;;;;;11.17;7.33;;;8.30;99.90;;;8.55;nan;100547.25;4953957;29;21059;-64
2022/11/29 05:55:18;;;;;;;11.00;6.40;;;8.20;99.90;;;8.51;nan;100550.16;4945458;28;20988;-64
2022/11/29 05:58:07;;;;;;;12.70;8.00;;;8.20;99.90;;;8.50;nan;100548.47;4925491;29;20644;-64
2022/11/29 06:00:58;;;;;;;12.93;7.80;;;8.20;99.90;;;8.35;nan;100554.66;4936276;29;20636;-65
2022/11/29 06:03:38;;;;;;;13.47;8.27;;;8.20;99.90;;;8.42;nan;100553.34;4937966;29;20716;-64
2022/11/29 06:06:21;;;;;;;14.47;7.60;;;8.20;99.90;;;8.36;nan;100553.75;4936796;29;20638;-63
2022/11/29 06:09:04;;;;;;;14.93;9.10;;;8.10;99.90;;;8.40;nan;100555.22;4921871;29;20770;-65
2022/11/29 06:11:43;;;;;;;14.90;8.47;;;8.20;99.90;;;8.34;nan;100555.59;4937096;28;21273;-65
2022/11/29 06:14:35;;;;;;;14.80;8.73;;;8.10;99.90;;;8.41;nan;100562.09;4937664;29;20644;-65
2022/11/29 06:17:56;;;;;;;16.60;9.40;;;8.10;99.90;;;8.37;nan;100564.03;4935880;29;20695;-65
2022/11/29 06:20:44;;;;;;;9.20;6.07;;;8.10;99.90;;;8.34;nan;100563.41;4877345;29;20651;-64
2022/11/29 06:23:30;;;;;;;16.10;9.10;;;8.10;99.90;;;8.37;nan;100574.44;4906324;29;20639;-64
2022/11/29 06:26:33;;;;;;;11.60;7.80;;;8.10;99.90;;;8.42;nan;100572.38;4964776;28;21245;-64
2022/11/29 06:29:11;;;;;;;10.63;7.07;;;8.10;99.90;;;8.44;nan;100570.53;4939903;28;21091;-64
2022/11/29 06:31:43;;;;;;;11.40;7.30;;;8.10;99.90;;;8.38;nan;100570.91;4964958;28;20681;-65
2022/11/29 06:34:37;;;;;;;12.37;8.20;;;8.10;99.90;;;8.35;nan;100581.50;4943173;29;20635;-63
2022/11/29 06:37:21;;;;;;;12.60;7.40;;;8.10;99.90;;;8.36;nan;100587.53;4947637;29;20643;-64
2022/11/29 06:39:49;;;;;;;9.50;6.70;;;8.10;99.90;;;8.39;nan;100587.34;4952346;29;20671;-63
2022/11/29 06:42:16;;;;;;;8.83;6.30;;;8.10;99.90;;;8.43;nan;100594.84;4954458;28;21057;-64
2022/11/29 06:44:43;;;;;;;10.57;6.40;;;8.10;99.90;;;8.46;nan;100592.06;4953275;28;20636;-64
2022/11/29 06:47:38;;;;;;;8.70;5.97;;;8.10;99.90;;;8.55;nan;100593.22;4953738;29;21307;-64
2022/11/29 06:50:42;;;;;;;9.70;6.23;;;8.20;99.90;;;8.49;nan;100596.22;4937297;29;20675;-65
2022/11/29 06:53:34;;;;;;;11.67;6.70;;;8.20;99.90;;;8.50;nan;100601.31;4935943;29;20627;-63
2022/11/29 06:56:31;;;;;;;8.93;6.23;;;8.20;99.90;;;8.50;nan;100608.28;4953119;29;20643;-64
2022/11/29 06:59:49;;;;;;;4.37;3.93;;;8.20;99.90;;;8.56;nan;100613.13;4953816;28;21250;-64
2022/11/29 07:03:06;;;;;;;7.27;4.70;;;8.20;99.90;;;8.54;nan;100614.94;4963227;28;20835;-64
2022/11/29 07:05:34;;;;;;;9.40;5.37;;;8.20;99.90;;;8.57;nan;100619.97;4961964;28;21051;-64
2022/11/29 07:08:07;;;;;;;7.20;5.23;;;8.20;99.90;;;8.59;nan;100620.72;4951618;29;20641;-64
2022/11/29 07:10:38;;;;;;;9.70;5.33;;;8.20;99.90;;;8.62;nan;100620.53;4952120;29;20664;-64
2022/11/29 07:13:05;;;;;;;7.00;6.03;;;8.30;99.90;;;8.59;nan;100625.91;4935557;29;20644;-64
2022/11/29 07:15:35;;;;;;;7.57;6.57;;;8.20;99.90;;;8.58;nan;100624.25;4947810;28;21223;-64
2022/11/29 07:18:18;;;;;;;8.47;6.17;;;8.20;99.90;;;8.62;nan;100624.88;4933394;29;21208;-64
2022/11/29 07:21:35;;;;;;;5.40;4.40;;;8.30;99.90;;;8.70;nan;100631.28;4946656;29;20647;-64
2022/11/29 07:24:33;;;;;;;6.57;4.10;;;8.30;99.90;;;8.66;nan;100627.19;4903588;29;20686;-65
2022/11/29 07:27:23;;;;;;;8.57;5.37;;;8.30;99.90;;;8.70;nan;100633.88;4959828;28;20644;-64
2022/11/29 07:30:12;;;;;;;10.53;7.00;;;8.30;99.90;;;8.68;nan;100635.72;4934027;29;20672;-64
2022/11/29 07:33:18;;;;;;;8.00;5.83;;;8.30;99.90;;;8.75;nan;100633.56;4943857;28;20647;-64
2022/11/29 07:36:05;;;;;;;4.67;4.17;;;8.30;99.90;;;8.74;nan;100642.31;4946572;29;20631;-64
2022/11/29 07:38:57;;;;;;;8.37;5.27;;;8.40;99.90;;;8.78;nan;100642.00;4952025;29;20672;-65
2022/11/29 07:42:08;;;;;;;9.20;6.60;;;8.40;99.90;;;8.84;nan;100635.59;4933935;29;21044;-65
2022/11/29 07:44:54;;;;;;;7.70;6.20;;;8.40;99.90;;;8.87;nan;100643.19;4950087;29;21274;-64
2022/11/29 07:47:21;;;;;;;8.20;6.50;;;8.50;99.90;;;8.83;nan;100642.56;4952525;29;20628;-64
2022/11/29 07:49:48;;;;;;;11.10;6.90;;;8.50;99.90;;;8.87;nan;100644.03;4934512;29;21081;-64
2022/11/29 07:52:15;;;;;;;11.67;7.20;;;8.50;99.90;;;8.71;nan;100648.53;4935497;28;20649;-64
2022/11/29 07:54:42;;;;;;;14.27;8.27;;;8.50;99.90;;;8.76;nan;100653.44;4942591;29;20644;-65
2022/11/29 07:57:10;;;;;;;8.67;6.40;;;8.50;99.90;;;8.73;nan;100657.06;4949395;29;21196;-64
2022/11/29 07:59:37;;;;;;;12.13;8.63;;;8.50;99.90;;;8.67;nan;100651.44;4952276;29;20678;-65
2022/11/29 08:02:04;;;;;;;14.17;8.23;;;8.50;99.90;;;8.75;nan;100654.38;4938196;28;20732;-64
2022/11/29 08:04:42;;;;;;;14.70;8.70;;;8.50;99.90;;;8.58;nan;100651.06;4951296;29;21215;-64
2022/11/29 08:07:11;;;;;;;13.60;8.23;;;8.40;99.90;;;8.62;nan;100646.53;4950713;29;21201;-64
2022/11/29 08:09:38;;;;;;;12.77;8.00;;;8.40;99.90;;;8.64;nan;100651.63;4951720;29;20667;-64
2022/11/29 08:12:05;;;;;;;12.27;7.70;;;8.40;99.90;;;8.57;nan;100649.41;4951718;28;20658;-65
2022/11/29 08:14:32;;;;;;;13.50;8.20;;;8.40;99.90;;;8.69;nan;100657.38;4917021;29;20699;-64
2022/11/29 08:16:59;;;;;;;15.20;8.77;;;8.40;99.90;;;8.70;nan;100656.44;4934472;29;20640;-64
2022/11/29 08:19:26;;;;;;;16.93;8.90;;;8.40;99.90;;;8.63;nan;100662.94;4967043;23;20690;-65
2022/11/29 08:21:53;;;;;;;16.77;7.13;;;8.40;99.90;;;8.67;nan;100659.25;4987255;28;20722;-65
2022/11/29 08:24:20;;;;;;;12.00;7.80;;;8.40;99.90;;;8.72;nan;100664.97;4990876;28;20644;-66
2022/11/29 08:26:48;;;;;;;11.10;7.50;;;8.40;99.90;;;8.64;nan;100665.47;4988680;28;20631;-66
2022/11/29 08:29:15;;;;;;;11.10;7.43;;;8.40;99.90;;;8.83;nan;100671.19;4974180;28;20659;-64
2022/11/29 08:31:42;;;;;;;13.20;7.40;;;8.50;99.90;;;8.88;nan;100669.09;4990326;28;20682;-64
2022/11/29 08:34:09;;;;;;;12.40;7.10;;;8.50;99.90;;;8.93;nan;100672.25;4989459;28;21193;-65
2022/11/29 08:36:37;;;;;;;18.13;7.70;;;8.60;99.90;;;8.93;nan;100676.59;4989420;28;20664;-64
2022/11/29 08:39:04;;;;;;;14.87;7.80;;;8.60;99.90;;;9.04;nan;100685.41;4989853;28;20668;-65
2022/11/29 08:41:35;;;;;;;13.70;8.67;;;8.60;99.90;;;9.10;nan;100676.34;4971501;28;20616;-64
2022/11/29 08:44:04;;;;;;;16.70;9.40;;;8.70;99.90;;;9.15;nan;100688.16;4989164;28;20631;-65
2022/11/29 08:49:17;;;;;;;8.90;6.73;;;8.80;99.90;;;9.20;nan;100690.44;4983497;28;20662;-64
2022/11/29 08:51:44;;;;;;;10.70;7.63;;;8.80;99.90;;;9.22;nan;100689.41;4979439;28;21288;-64
2022/11/29 08:54:11;;;;;;;10.77;6.53;;;8.80;99.90;;;9.07;nan;100690.41;4988864;28;20630;-64
2022/11/29 08:56:38;;;;;;;13.20;7.77;;;8.80;99.90;;;9.22;nan;100688.59;4990754;28;20632;-64
2022/11/29 08:59:25;;;;;;;11.83;7.80;;;8.80;99.90;;;9.24;nan;100697.94;4978648;28;20647;-64
2022/11/29 09:01:52;;;;;;;11.87;8.17;;;8.90;99.90;;;9.26;nan;100701.28;4984298;28;20672;-64
2022/11/29 09:04:19;;;;;;;11.73;8.13;;;8.90;99.90;;;9.24;nan;100699.75;4982472;28;20635;-63
2022/11/29 09:06:48;;;;;;;12.17;7.60;;;8.90;99.90;;;9.29;nan;100700.25;4988108;28;20623;-65
2022/11/29 09:09:15;;;;;;;11.90;7.40;;;8.90;99.90;;;9.28;nan;100704.63;4988180;28;20658;-65
2022/11/29 09:11:43;;;;;;;12.80;7.10;;;8.90;99.90;;;9.28;nan;100711.63;4973704;28;20674;-65
2022/11/29 09:14:16;;;;;;;11.37;7.77;;;8.90;99.90;;;9.26;nan;100716.91;4978920;28;20650;-65
2022/11/29 09:16:43;;;;;;;13.20;7.63;;;8.90;99.90;;;9.36;nan;100718.00;4987249;28;20639;-65
2022/11/29 09:19:13;;;;;;;13.90;7.87;;;9.00;99.90;;;9.20;nan;100714.69;4989710;28;20658;-64
2022/11/29 09:21:40;;;;;;;8.70;6.30;;;8.90;99.90;;;9.27;nan;100715.97;4972718;28;20954;-64
2022/11/29 09:24:08;;;;;;;8.90;6.50;;;8.90;99.90;;;9.30;nan;100723.59;4991469;28;20626;-65
2022/11/29 09:26:36;;;;;;;11.07;7.73;;;9.00;99.90;;;9.25;nan;100730.88;4989733;28;20680;-63
2022/11/29 09:29:06;;;;;;;10.80;6.93;;;9.00;99.90;;;9.34;nan;100722.47;4990680;28;20651;-65
2022/11/29 09:31:34;;;;;;;11.07;7.10;;;9.00;99.90;;;9.28;nan;100727.25;4987740;28;20666;-66
2022/11/29 09:34:01;;;;;;;9.87;6.77;;;9.00;99.90;;;9.31;nan;100730.47;4987713;28;20642;-65
2022/11/29 09:36:29;;;;;;;11.83;6.83;;;9.00;99.90;;;9.29;nan;100732.34;4969928;28;20639;-65
2022/11/29 09:38:58;;;;;;;10.83;7.30;;;9.00;99.90;;;9.21;nan;100732.00;4986257;28;20665;-67
2022/11/29 09:41:57;;;;;;;10.83;7.33;;;9.00;99.90;;;9.17;nan;100745.31;4974175;28;20638;-66
2022/11/29 09:44:44;;;;;;;10.23;6.93;;;8.90;99.90;;;9.19;nan;100744.28;4939040;28;21542;-66
2022/11/29 09:47:23;;;;;;;10.63;6.73;;;8.90;99.90;;;9.24;nan;100744.00;4979432;28;20643;-66
2022/11/29 09:50:20;;;;;;;8.50;6.60;;;8.90;99.90;;;9.22;nan;100741.47;4972495;28;20658;-64
2022/11/29 09:53:14;;;;;;;8.63;6.07;;;8.90;99.90;;;9.35;nan;100746.72;4992090;28;20639;-67
2022/11/29 09:56:14;;;;;;;10.57;7.20;;;8.90;99.90;;;9.34;nan;100751.13;4992202;28;20642;-68
2022/11/29 09:59:00;;;;;;;7.87;6.03;;;9.00;99.90;;;9.37;nan;100747.44;4981886;28;20739;-65
2022/11/29 10:02:05;;;;;;;10.37;6.80;;;9.00;99.90;;;9.43;nan;100736.66;4973261;28;21020;-64
2022/11/29 10:04:39;;;;;;;9.77;6.90;;;9.00;99.90;;;9.48;nan;100742.38;4992484;28;20646;-65
2022/11/29 10:07:13;;;;;;;8.77;6.00;;;9.10;99.90;;;9.60;nan;100748.56;4975863;28;20639;-65
2022/11/29 10:09:51;;;;;;;11.60;6.27;;;9.10;99.90;;;9.59;nan;100745.13;4985971;28;20654;-65
2022/11/29 10:12:48;;;;;;;10.33;6.97;;;9.20;99.90;;;9.74;nan;100754.53;4981891;28;20634;-66
2022/11/29 10:15:21;;;;;;;10.30;7.10;;;9.30;99.90;;;9.77;nan;100750.91;4990603;28;21218;-65
2022/11/29 10:18:04;;;;;;;9.33;6.20;;;9.30;99.90;;;9.82;nan;100752.25;4974890;28;20638;-63
2022/11/29 10:20:39;;;;;;;11.17;6.97;;;9.40;99.90;;;9.89;nan;100745.69;4971230;28;20682;-64
2022/11/29 10:23:37;;;;;;;9.30;5.50;;;9.40;99.90;;;9.91;nan;100746.41;4971574;28;20638;-65
2022/11/29 10:26:06;;;;;;;8.50;5.80;;;9.40;99.90;;;9.93;nan;100741.09;4979692;28;21268;-64
2022/11/29 10:28:36;;;;;;;7.17;5.37;;;9.40;99.90;;;9.94;nan;100742.78;4992054;28;21005;-64
2022/11/29 10:31:29;;;;;;;10.77;7.17;;;9.50;99.90;;;10.05;nan;100742.91;4991030;28;20683;-64
2022/11/29 10:34:01;;;;;;;13.20;8.00;;;9.50;99.90;;;10.02;nan;100743.09;4969617;28;20636;-64
2022/11/29 10:36:52;;;;;;;13.83;8.20;;;9.60;99.90;;;10.06;nan;100740.19;4989536;28;20684;-65
2022/11/29 10:40:18;;;;;;;18.23;8.97;;;9.60;99.90;;;9.95;nan;100739.22;4979858;28;20650;-63
2022/11/29 10:42:48;;;;;;;15.17;8.77;;;9.60;99.90;;;9.85;nan;100738.19;4949100;28;20645;-63
2022/11/29 10:45:40;;;;;;;9.07;5.90;;;9.60;99.90;;;9.87;nan;100739.75;4985035;28;20649;-65
2022/11/29 10:48:13;;;;;;;10.63;7.17;;;9.50;99.90;;;9.95;nan;100742.66;4983998;28;21195;-64
2022/11/29 10:50:43;;;;;;;6.70;5.33;;;9.50;99.90;;;9.97;nan;100738.19;4971124;28;20667;-63
2022/11/29 10:53:11;;;;;;;14.43;8.07;;;9.60;99.90;;;10.03;nan;100735.16;4974496;28;20626;-64
2022/11/29 10:55:44;;;;;;;9.30;6.47;;;9.60;99.90;;;10.03;nan;100745.59;4983009;28;20630;-65
2022/11/29 10:58:27;;;;;;;15.80;8.57;;;9.60;99.90;;;9.98;nan;100739.03;4973269;28;20653;-64
2022/11/29 11:01:07;;;;;;;18.00;10.23;;;9.60;99.90;;;9.99;nan;100740.69;4971736;28;20649;-64
2022/11/29 11:03:44;;;;;;;15.73;8.87;;;9.60;99.90;;;9.94;nan;100741.03;4980659;28;21249;-64
2022/11/29 11:06:51;;;;;;;15.00;10.13;;;9.60;99.90;;;9.98;nan;100742.47;4979299;28;20638;-63
2022/11/29 11:09:41;;;;;;;14.63;8.27;;;9.60;99.90;;;9.97;nan;100743.41;4946240;28;20662;-64
2022/11/29 11:12:14;;;;;;;17.63;8.13;;;9.60;99.90;;;9.99;nan;100741.53;4975768;28;20670;-64
2022/11/29 11:14:43;;;;;;;12.50;7.93;;;9.60;99.90;;;9.94;nan;100740.19;4992386;28;20638;-64
2022/11/29 11:17:35;;;;;;;16.00;8.70;;;9.60;99.90;;;10.01;nan;100738.81;4992605;28;20688;-65
2022/11/29 11:20:21;;;;;;;16.40;8.87;;;9.60;99.90;;;9.98;nan;100737.25;4991762;28;20729;-66
2022/11/29 11:23:06;;;;;;;15.60;8.90;;;9.60;99.90;;;10.03;nan;100732.56;4992633;28;20634;-64
2022/11/29 11:25:36;;;;;;;17.00;9.30;;;9.70;99.90;;;10.01;nan;100738.81;4975267;28;20638;-65
2022/11/29 11:28:25;;;;;;;12.30;7.17;;;9.70;99.90;;;10.06;nan;100742.78;4974887;28;20645;-66
2022/11/29 11:31:07;;;;;;;15.50;9.00;;;9.70;99.90;;;10.08;nan;100740.91;4992723;28;20666;-65
2022/11/29 11:33:44;;;;;;;16.70;8.20;;;9.70;99.90;;;10.23;nan;100746.03;4992580;28;20638;-65
2022/11/29 11:36:26;;;;;;;11.37;5.90;;;9.70;99.90;;;10.27;nan;100745.72;4973529;28;20626;-65
2022/11/29 11:39:09;;;;;;;14.10;8.07;;;9.80;99.90;;;10.27;nan;100755.31;4991941;28;20651;-68
2022/11/29 11:44:48;;;;;;;14.10;7.70;;;9.80;99.90;;;10.28;nan;100760.44;4992173;28;21029;-67
2022/11/29 11:47:30;;;;;;;10.57;6.50;;;9.80;99.90;;;10.36;nan;100757.28;4974473;28;20646;-65
2022/11/29 11:50:02;;;;;;;11.17;6.20;;;9.90;99.90;;;10.35;nan;100764.28;4973481;28;21148;-65
2022/11/29 11:52:38;;;;;;;8.33;5.43;;;9.90;99.90;;;10.26;nan;100761.47;4990820;28;20666;-64
2022/11/29 11:55:41;;;;;;;11.87;7.83;;;9.90;99.90;;;10.20;nan;100757.50;4992228;28;21008;-65